• Join FlightAware (Why Join?)
  • Login
  • US Flag 
11:19PM EST


 

Airport Tracker/Info


-or-


 

Live Flight TrackerFlight Track Log ✈ SWA1729 ✈ 26-Apr-2013 ✈ KBNA - KHOU

Flight Track Log - Related Links

Times and Time Zones

All times are in EDT time to prevent confusion due to time zone crossing. See the SWA1729 flight status page for this flight to view local times or setup timezone preferences in your user account.

Time Position Orientation Groundspeed Altitude Reporting Facility
EDT Latitude Longitude Course Direction KTS MPH feet Rate Location/Type
07:29PM 36.1500 -86.6667 360° North 159 183 1,300  Level Nashville TRACON
07:31PM 36.2167 -86.6667 360° North 239 275 4,200 2,220 Climbing Nashville TRACON
07:31PM 36.2167 -86.7333 270° West 279 321 6,300 3,240 Climbing Nashville TRACON
07:33PM 36.1858 -86.8392 250° West 251 289 10,900 3,060 Climbing Memphis Center
07:34PM 36.1653 -86.9222 253° West 263 303 13,200 2,220 Climbing Memphis Center
07:35PM 36.1431 -87.0311 256° West 312 359 15,400 2,340 Climbing Memphis Center
07:36PM 36.1169 -87.1428 254° West 338 389 17,900 2,580 Climbing Memphis Center
07:37PM 36.0908 -87.2619 255° West 356 410 20,600 2,400 Climbing Memphis Center
07:38PM 36.0647 -87.3886 256° West 361 415 22,700 1,980 Climbing Memphis Center
07:39PM 36.0386 -87.5206 256° West 373 429 24,600 1,800 Climbing Memphis Center
07:40PM 36.0142 -87.6497 257° West 385 443 26,300 2,340 Climbing Memphis Center
07:41PM 35.9858 -87.7789 255° West 396 456 29,300 2,280 Climbing Memphis Center
07:42PM 35.9253 -87.8833 234° Southwest 372 428 30,900 1,380 Climbing Memphis Center
07:43PM 35.8503 -87.9831 227° Southwest 389 448 32,100 1,260 Climbing Memphis Center
07:44PM 35.7769 -88.0822 228° Southwest 396 456 33,500 1,260 Climbing Memphis Center
07:45PM 35.7075 -88.1686 225° Southwest 396 456 34,700 1,200 Climbing Memphis Center
07:46PM 35.6342 -88.2675 228° Southwest 391 450 36,000 660 Climbing Memphis Center
07:47PM 35.5547 -88.3742 228° Southwest 391 450 36,100  Climbing Memphis Center
07:48PM 35.4789 -88.4703 226° Southwest 397 457 36,100  Level Memphis Center
07:49PM 35.4197 -88.5481 227° Southwest 397 457 36,100  Level Memphis Center
07:50PM 35.3397 -88.6592 229° Southwest 397 457 36,100  Level Memphis Center
07:51PM 35.2661 -88.7575 227° Southwest 391 450 36,100  Level Memphis Center
07:52PM 35.1986 -88.8603 231° Southwest 396 456 36,100 -60 Level Memphis Center
07:53PM 35.1436 -88.9756 240° Southwest 396 456 36,000  Descending Memphis Center
07:54PM 35.0758 -89.0908 234° Southwest 396 456 36,100  Climbing Memphis Center
07:55PM 34.9933 -89.1861 223° Southwest 394 453 36,100  Level Memphis Center
07:56PM 34.9131 -89.2858 226° Southwest 403 464 36,100  Level Memphis Center
07:57PM 34.8303 -89.3831 224° Southwest 410 472 36,100  Level Memphis Center
07:58PM 34.7475 -89.4800 224° Southwest 415 478 36,100  Level Memphis Center
07:59PM 34.6669 -89.5769 225° Southwest 415 478 36,100 -60 Level Memphis Center
08:00PM 34.5944 -89.6658 225° Southwest 410 472 36,000  Descending Memphis Center
08:01PM 34.5197 -89.7597 226° Southwest 403 464 36,100  Climbing Memphis Center
08:02PM 34.4408 -89.8533 224° Southwest 403 464 36,100  Level Memphis Center
08:03PM 34.3619 -89.9469 224° Southwest 403 464 36,100  Level Memphis Center
08:04PM 34.2828 -90.0406 224° Southwest 403 464 36,100  Level Memphis Center
08:05PM 34.1975 -90.1436 225° Southwest 398 458 36,100  Level Memphis Center
08:06PM 34.1206 -90.2342 224° Southwest 398 458 36,100  Level Memphis Center
08:07PM 34.0433 -90.3269 225° Southwest 398 458 36,100  Level Memphis Center
08:08PM 33.9661 -90.4172 224° Southwest 391 450 36,100  Level Memphis Center
08:09PM 33.8867 -90.5097 224° Southwest 396 456 36,100  Level Memphis Center
08:10PM 33.8114 -90.5997 225° Southwest 391 450 36,100  Level Memphis Center
08:11PM 33.7339 -90.6894 224° Southwest 391 450 36,100  Level Memphis Center
08:12PM 33.6608 -90.7764 225° Southwest 386 444 36,100  Level Memphis Center
08:13PM 33.5811 -90.8658 223° Southwest 386 444 36,100  Level Memphis Center
08:14PM 33.5014 -90.9550 223° Southwest 386 444 36,100  Level Memphis Center
08:15PM 33.4236 -91.0467 225° Southwest 386 444 36,100  Level Memphis Center
08:16PM 33.3481 -91.1356 225° Southwest 386 444 36,100  Level Memphis Center
08:17PM 33.2703 -91.2244 224° Southwest 386 444 36,100  Level Memphis Center
08:19PM 33.1219 -91.3931 224° Southwest 355 409 36,100  Level Houston Center
08:20PM 33.0422 -91.4861 224° Southwest 385 443 36,100  Level Fort Worth Center
08:21PM 32.9628 -91.5731 223° Southwest 385 443 36,100  Level Fort Worth Center
08:22PM 32.8856 -91.6597 223° Southwest 385 443 36,100  Level Fort Worth Center
08:23PM 32.8081 -91.7514 225° Southwest 390 449 36,100  Level Fort Worth Center
08:25PM 32.6353 -91.9422 223° Southwest 392 451 36,100  Level Houston Center
08:26PM 32.5572 -92.0314 224° Southwest 389 448 36,100 -60 Level Houston Center
08:27PM 32.4756 -92.1222 223° Southwest 390 449 36,000 -60 Descending Houston Center
08:28PM 32.3956 -92.2083 222° Southwest 387 445 36,000  Level Houston Center
08:29PM 32.3167 -92.2961 223° Southwest 387 445 36,000  Level Houston Center
08:30PM 32.2381 -92.3836 223° Southwest 388 447 36,000  Level Houston Center
08:31PM 32.1589 -92.4708 223° Southwest 389 448 36,000  Level Houston Center
08:32PM 32.0800 -92.5594 224° Southwest 391 450 36,000  Level Houston Center
08:33PM 31.9850 -92.6636 223° Southwest 389 448 36,000  Level Houston Center
08:34PM 31.9094 -92.7556 226° Southwest 390 449 36,000  Level Houston Center
08:35PM 31.8361 -92.8475 227° Southwest 388 447 36,000  Level Houston Center
08:36PM 31.7633 -92.9403 227° Southwest 387 445 36,000  Level Houston Center
08:37PM 31.6928 -93.0358 229° Southwest 386 444 36,000  Level Houston Center
08:38PM 31.6183 -93.1286 227° Southwest 389 448 36,000  Level Houston Center
08:39PM 31.5297 -93.2400 227° Southwest 390 449 36,000  Level Houston Center
08:40PM 31.4611 -93.3261 227° Southwest 387 445 36,100  Climbing Houston Center
08:41PM 31.3881 -93.4189 227° Southwest 390 449 36,100  Level Houston Center
08:42PM 31.2994 -93.5286 227° Southwest 390 449 36,100 -300 Level Houston Center
08:43PM 31.2361 -93.6078 227° Southwest 387 445 35,500 -780 Descending Houston Center
08:44PM 31.1633 -93.6997 227° Southwest 388 447 34,500 -1,080 Descending Houston Center
08:45PM 31.0753 -93.8097 227° Southwest 388 447 33,300 -1,020 Descending Houston Center
08:46PM 30.9983 -93.9033 226° Southwest 392 451 32,400 -900 Descending Houston Center
08:47PM 30.9250 -93.9933 226° Southwest 394 453 31,500 -960 Descending Houston Center
08:48PM 30.8494 -94.0869 227° Southwest 399 459 30,500 -1,020 Descending Houston Center
08:50PM 30.7711 -94.1819 226° Southwest 407 468 29,500 -2,040 Descending Houston Center
08:51PM 30.6764 -94.2967 226° Southwest 411 473 26,400 -2,760 Descending Houston Center
08:52PM 30.6019 -94.3875 226° Southwest 395 455 23,900 -2,520 Descending Houston Center
08:52PM 30.5550 -94.4439 226° Southwest 384 442 22,400 -2,340 Descending Houston Center
08:53PM 30.5297 -94.4750 227° Southwest 381 438 21,500 -2,340 Descending Houston Center
08:53PM 30.4803 -94.5408 229° Southwest 368 423 19,800 -2,520 Descending Houston Center
08:54PM 30.4575 -94.5736 231° Southwest 368 423 18,900 -2,100 Descending Houston Center
08:54PM 30.4222 -94.6333 236° Southwest 354 407 17,700 -1,800 Descending Houston Center
08:55PM 30.4044 -94.6581 230° Southwest 353 406 17,100 -2,400 Descending Houston Center
08:55PM 30.3597 -94.7286 234° Southwest 343 395 15,300 -2,460 Descending Houston Center
08:56PM 30.3478 -94.7478 234° Southwest 345 397 14,600 -2,580 Descending Houston Center
08:56PM 30.3047 -94.8106 232° Southwest 344 396 12,900 -1,980 Descending Houston Center
08:57PM 30.2894 -94.8367 236° Southwest 348 400 12,600 -1,020 Descending Houston Center
08:57PM 30.2500 -94.8975 233° Southwest 332 382 11,900 -1,080 Descending Houston Center
08:58PM 30.2364 -94.9208 236° Southwest 328 377 11,500 -1,140 Descending Houston Center
08:58PM 30.1986 -94.9764 232° Southwest 303 349 10,800 -1,200 Descending Houston Center
08:59PM 30.1758 -95.0119 233° Southwest 298 343 10,300 -840 Descending Houston Center
08:59PM 30.1489 -95.0528 233° Southwest 296 341 10,000 -300 Descending Houston Center
09:00PM 30.1178 -95.0778 215° Southwest 302 348 10,000 60 Level Houston Center
09:00PM 30.0733 -95.0983 202° Southwest 293 337 10,100  Climbing Houston Center
09:01PM 30.0417 -95.1119 200° South 296 341 10,000 -300 Descending Houston Center
09:01PM 30.0006 -95.1289 200° South 247 284 9,800 -540 Descending Houston Center
09:02PM 29.9764 -95.1400 202° Southwest 255 293 9,500 -900 Descending Houston Center
09:02PM 29.9361 -95.1561 199° South 222 255 8,800 -1,140 Descending Houston Center
09:03PM 29.9194 -95.1639 202° Southwest 221 254 8,400 -720 Descending Houston Center
09:03PM 29.8772 -95.1803 199° South 202 232 8,100 -300 Descending Houston Center
09:04PM 29.8628 -95.1847 195° South 214 246 8,100 -540 Level Houston Center
09:05PM 29.8178 -95.1947 191° South 227 261 7,600 -720 Descending Houston Center
09:05PM 29.8033 -95.1981 191° South 218 251 7,400 -1,140 Descending Houston Center
09:06PM 29.7592 -95.2189 202° Southwest 214 246 6,500 -1,260 Descending Houston Center
09:06PM 29.7386 -95.2317 208° Southwest 212 244 6,100 -540 Descending Houston Center
09:07PM 29.7053 -95.2494 205° Southwest 210 242 6,000 -120 Descending Houston Center
09:07PM 29.6858 -95.2600 205° Southwest 212 244 6,000  Level Houston Center
09:08PM 29.6558 -95.2819 212° Southwest 202 232 6,000  Level Houston Center
09:08PM 29.6492 -95.3050 252° West 220 253 6,000 -420 Level Houston Center
09:09PM 29.6472 -95.3478 267° West 220 253 5,600 -900 Descending Houston Center
09:09PM 29.6478 -95.3742 271° West 220 253 5,100 -1,440 Descending Houston Center
09:10PM 29.6475 -95.4200 270° West 226 260 4,200 -1,320 Descending Houston Center
09:10PM 29.6603 -95.4433 302° West 230 265 3,800 -1,260 Descending Houston Center
09:11PM 29.7000 -95.4664 333° Northwest 240 276 2,900 -1,200 Descending Houston Center
09:11PM 29.7153 -95.4544 34° Northeast 238 274 2,600 -1,020 Descending Houston Center
09:12PM 29.7311 -95.4169 64° Northeast 212 244 2,000 -600 Descending Houston Center
09:12PM 29.7278 -95.3944 100° East 218 251 2,000 -180 Level Houston Center
09:13PM 29.7111 -95.3594 119° Southeast 170 196 1,800 -420 Descending Houston Center
09:13PM 29.7039 -95.3497 131° Southeast 182 209 1,600 -720 Descending Houston Center
09:14PM 29.6853 -95.3289 136° Southeast 115 132 1,100 -840 Descending Houston Center
09:14PM 29.6747 -95.3150 131° Southeast 144 166 800 -720 Descending Houston Center
09:15PM 29.6614 -95.2981 132° Southeast 122 140 400 -600 Descending Houston Center
09:15PM 29.6519 -95.2881 137° Southeast 128 147 200 -420 Descending Houston Center